createdAt,value
2023-09-27T00:00:20.997Z,1014.45
2023-09-27T00:01:21.006Z,1014.44
2023-09-27T00:02:21.043Z,1014.46
2023-09-27T00:03:20.991Z,1014.39
2023-09-27T00:04:20.938Z,1014.45
2023-09-27T00:05:21.012Z,1014.47
2023-09-27T00:06:20.934Z,1014.47
2023-09-27T00:07:20.978Z,1014.43
2023-09-27T00:08:20.966Z,1014.46
2023-09-27T00:09:20.886Z,1014.43
2023-09-27T00:10:20.881Z,1014.40
2023-09-27T00:11:20.972Z,1014.38
2023-09-27T00:12:20.867Z,1014.37
2023-09-27T00:13:20.844Z,1014.35
2023-09-27T00:14:20.885Z,1014.33
2023-09-27T00:15:20.832Z,1014.39
2023-09-27T00:16:20.843Z,1014.37
2023-09-27T00:17:20.824Z,1014.39
2023-09-27T00:18:20.824Z,1014.38
2023-09-27T00:19:20.772Z,1014.38
2023-09-27T00:20:20.813Z,1014.40
2023-09-27T00:21:20.745Z,1014.44
2023-09-27T00:22:20.732Z,1014.42
2023-09-27T00:23:20.881Z,1014.44
2023-09-27T00:24:20.724Z,1014.40
2023-09-27T00:25:20.718Z,1014.45
2023-09-27T00:26:20.750Z,1014.42
2023-09-27T00:27:20.689Z,1014.45
2023-09-27T00:28:20.713Z,1014.50
2023-09-27T00:29:20.721Z,1014.50
2023-09-27T00:30:20.662Z,1014.48
2023-09-27T00:31:20.646Z,1014.48
2023-09-27T00:32:20.648Z,1014.46
2023-09-27T00:33:20.681Z,1014.44
2023-09-27T00:34:20.610Z,1014.43
2023-09-27T00:35:21.298Z,1014.41
2023-09-27T00:36:20.583Z,1014.42
2023-09-27T00:37:20.562Z,1014.43
2023-09-27T00:38:20.572Z,1014.42
2023-09-27T00:39:20.549Z,1014.45
2023-09-27T00:40:20.581Z,1014.47
2023-09-27T00:41:20.539Z,1014.50
2023-09-27T00:42:20.507Z,1014.47
2023-09-27T00:43:20.494Z,1014.44
2023-09-27T00:44:20.895Z,1014.48
2023-09-27T00:45:20.493Z,1014.47
2023-09-27T00:46:20.506Z,1014.50
2023-09-27T00:47:20.493Z,1014.50
2023-09-27T00:48:20.479Z,1014.51
2023-09-27T00:49:20.433Z,1014.52
2023-09-27T00:50:20.614Z,1014.54
2023-09-27T00:51:20.405Z,1014.53
2023-09-27T00:52:20.404Z,1014.53
2023-09-27T00:53:20.418Z,1014.53
2023-09-27T00:54:20.367Z,1014.60
2023-09-27T00:55:20.372Z,1014.63
2023-09-27T00:56:20.362Z,1014.66
2023-09-27T00:57:20.335Z,1014.69
2023-09-27T00:58:20.322Z,1014.67
2023-09-27T00:59:20.358Z,1014.71
2023-09-27T01:00:20.304Z,1014.71
2023-09-27T01:01:20.314Z,1014.69
2023-09-27T01:02:20.343Z,1014.72
2023-09-27T01:03:20.327Z,1014.70
2023-09-27T01:04:20.254Z,1014.75
2023-09-27T01:05:20.364Z,1014.77
2023-09-27T01:06:20.314Z,1014.75
2023-09-27T01:07:20.230Z,1014.79
2023-09-27T01:08:20.240Z,1014.79
2023-09-27T06:34:43.014Z,1015.20
2023-09-27T06:35:43.002Z,1015.19
2023-09-27T06:36:42.951Z,1015.24
2023-09-27T06:37:42.936Z,1015.23
2023-09-27T06:38:44.962Z,1015.26
2023-09-27T06:39:42.922Z,1015.23
2023-09-27T06:40:42.911Z,1015.18
2023-09-27T06:41:42.901Z,1015.17
2023-09-27T06:42:42.896Z,1015.15
2023-09-27T06:43:42.870Z,1015.15
2023-09-27T06:44:42.888Z,1015.14
2023-09-27T06:45:42.863Z,1015.11
2023-09-27T06:47:42.991Z,1015.07
2023-09-27T06:48:42.859Z,1015.12
2023-09-27T06:49:42.808Z,1015.10
2023-09-27T06:50:42.853Z,1015.10
2023-09-27T06:51:42.775Z,1015.13
2023-09-27T06:52:42.776Z,1015.10
2023-09-27T06:53:42.804Z,1015.12
2023-09-27T06:54:42.746Z,1015.13
2023-09-27T06:55:42.752Z,1015.14
2023-09-27T06:56:42.766Z,1015.19
2023-09-27T06:57:42.737Z,1015.14
2023-09-27T06:58:42.698Z,1015.11
2023-09-27T06:59:42.761Z,1015.10
2023-09-27T07:00:42.694Z,1015.05
2023-09-27T07:01:42.685Z,1015.01
2023-09-27T07:02:42.703Z,1015.01
2023-09-27T07:03:42.944Z,1014.99
2023-09-27T07:04:42.633Z,1014.96
2023-09-27T07:05:42.668Z,1014.94
2023-09-27T07:06:42.656Z,1014.89
2023-09-27T07:07:42.601Z,1014.90
2023-09-27T07:08:42.675Z,1014.90
2023-09-27T07:09:42.573Z,1014.85
2023-09-27T07:10:42.564Z,1014.83
2023-09-27T07:11:42.614Z,1014.84
2023-09-27T07:12:42.542Z,1014.82
2023-09-27T07:13:42.528Z,1014.81
2023-09-27T07:14:42.588Z,1014.79
2023-09-27T07:15:42.509Z,1014.80
2023-09-27T07:16:50.765Z,1014.79
2023-09-27T07:17:43.613Z,1014.77
2023-09-27T07:18:42.560Z,1014.81
2023-09-27T07:19:42.461Z,1014.82
2023-09-27T07:20:42.469Z,1014.82
2023-09-27T07:21:42.454Z,1014.83
2023-09-27T07:22:42.453Z,1014.88
2023-09-27T07:23:42.458Z,1014.87
2023-09-27T07:24:42.407Z,1014.89
2023-09-27T07:25:42.395Z,1014.91
2023-09-27T07:26:42.433Z,1014.94
2023-09-27T07:27:42.390Z,1014.96
2023-09-27T07:28:42.372Z,1014.98
2023-09-27T07:29:42.388Z,1014.97
2023-09-27T07:30:42.446Z,1015.02
2023-09-27T07:31:42.345Z,1014.99
2023-09-27T07:32:42.409Z,1015.00
2023-09-27T07:33:44.737Z,1015.04
2023-09-27T07:34:42.298Z,1015.01
2023-09-27T07:35:42.304Z,1015.05
2023-09-27T07:36:42.283Z,1015.04
2023-09-27T07:37:42.257Z,1015.08
2023-09-27T07:38:42.304Z,1015.15
2023-09-27T07:39:44.774Z,1015.13
2023-09-27T07:40:42.242Z,1015.18
2023-09-27T07:41:42.255Z,1015.16
2023-09-27T07:42:42.201Z,1015.15
2023-09-27T07:43:42.190Z,1015.14
2023-09-27T07:44:42.221Z,1015.12
2023-09-27T07:45:42.171Z,1015.08
2023-09-27T07:46:42.231Z,1015.09
2023-09-27T07:47:42.174Z,1015.10
2023-09-27T07:48:42.136Z,1015.09
2023-09-27T07:49:42.124Z,1015.11
2023-09-27T07:50:42.140Z,1015.14
2023-09-27T07:51:42.119Z,1015.16
2023-09-27T07:52:42.094Z,1015.16
2023-09-27T07:53:42.265Z,1015.17
2023-09-27T07:54:42.251Z,1015.20
2023-09-27T07:55:42.080Z,1015.17
2023-09-27T07:56:42.092Z,1015.17
2023-09-27T07:57:42.030Z,1015.22
2023-09-27T07:58:42.023Z,1015.19
2023-09-27T07:59:42.080Z,1015.22
2023-09-27T08:00:42.060Z,1015.20
2023-09-27T08:01:42.095Z,1015.21
2023-09-27T08:02:42.181Z,1015.18
2023-09-27T08:03:42.173Z,1015.19
2023-09-27T08:04:42.008Z,1015.12
2023-09-27T08:05:42.068Z,1015.09
2023-09-27T08:06:41.952Z,1015.06
2023-09-27T08:07:41.913Z,1015.05
2023-09-27T08:08:41.959Z,1015.05
2023-09-27T08:09:42.353Z,1015.03
2023-09-27T08:10:41.918Z,1015.05
2023-09-27T08:11:41.953Z,1014.98
2023-09-27T08:12:41.858Z,1015.00
2023-09-27T08:13:41.892Z,1014.94
2023-09-27T08:14:41.870Z,1014.94
2023-09-27T08:15:41.824Z,1014.91
2023-09-27T08:16:43.500Z,1014.88
2023-09-27T08:17:41.863Z,1014.93
2023-09-27T08:18:41.816Z,1014.88
2023-09-27T08:19:41.774Z,1014.90
2023-09-27T08:20:41.868Z,1014.89
2023-09-27T08:21:41.760Z,1014.84
2023-09-27T08:22:41.740Z,1014.86
2023-09-27T08:23:41.742Z,1014.87
2023-09-27T08:24:41.720Z,1014.88
2023-09-27T08:25:41.706Z,1014.87
2023-09-27T08:26:41.767Z,1014.82
2023-09-27T08:27:41.683Z,1014.84
2023-09-27T08:28:41.673Z,1014.81
2023-09-27T08:29:41.732Z,1014.83
2023-09-27T08:30:41.696Z,1014.86
2023-09-27T08:31:41.924Z,1014.83
2023-09-27T08:32:41.702Z,1014.81
2023-09-27T08:33:41.619Z,1014.81
2023-09-27T08:34:41.603Z,1014.79
2023-09-27T08:35:41.689Z,1014.75
2023-09-27T08:36:41.601Z,1014.76
2023-09-27T08:37:41.572Z,1014.70
2023-09-27T08:38:41.652Z,1014.75
2023-09-27T08:39:41.552Z,1014.74
2023-09-27T08:40:41.536Z,1014.71
2023-09-27T08:41:41.578Z,1014.73
2023-09-27T08:42:41.557Z,1014.74
2023-09-27T08:43:41.498Z,1014.73
2023-09-27T08:44:41.551Z,1014.70
2023-09-27T08:45:41.501Z,1014.67
2023-09-27T08:46:41.528Z,1014.65
2023-09-27T08:47:41.483Z,1014.61
2023-09-27T08:48:41.463Z,1014.60
2023-09-27T08:49:41.434Z,1014.55
2023-09-27T08:50:41.481Z,1014.51
2023-09-27T08:51:41.421Z,1014.49
2023-09-27T08:52:41.409Z,1014.49
2023-09-27T08:53:41.391Z,1014.52
2023-09-27T08:54:41.378Z,1014.56
2023-09-27T08:55:41.367Z,1014.60
2023-09-27T08:56:41.435Z,1014.63
2023-09-27T08:57:41.341Z,1014.65
2023-09-27T08:58:41.479Z,1014.65
2023-09-27T08:59:41.387Z,1014.60
2023-09-27T09:00:41.339Z,1014.57
2023-09-27T09:01:41.473Z,1014.53
2023-09-27T09:02:41.438Z,1014.51
2023-09-27T09:03:41.546Z,1014.47
2023-09-27T09:04:41.292Z,1014.43
2023-09-27T09:05:41.374Z,1014.43
2023-09-27T09:06:41.325Z,1014.45
2023-09-27T09:07:42.390Z,1014.39
2023-09-27T09:08:54.629Z,1014.42
2023-09-27T09:09:42.206Z,1014.42
2023-09-27T09:10:41.197Z,1014.40
2023-09-27T09:11:41.232Z,1014.41
2023-09-27T09:12:41.174Z,1014.32
2023-09-27T09:13:41.164Z,1014.30
2023-09-27T09:14:41.233Z,1014.29
2023-09-27T09:15:41.206Z,1014.32
2023-09-27T09:16:41.592Z,1014.24
2023-09-27T09:17:41.177Z,1014.30
2023-09-27T09:18:41.115Z,1014.30
2023-09-27T09:19:45.126Z,1014.26
2023-09-27T09:20:41.112Z,1014.24
2023-09-27T09:21:41.088Z,1014.20
2023-09-27T09:22:41.067Z,1014.21
2023-09-27T09:23:41.088Z,1014.12
2023-09-27T09:24:41.041Z,1014.14
2023-09-27T09:25:41.031Z,1014.12
2023-09-27T09:26:41.067Z,1014.08
2023-09-27T09:27:43.461Z,1014.07
2023-09-27T09:28:40.994Z,1014.04
2023-09-27T09:29:40.994Z,1014.03
2023-09-27T09:30:40.995Z,1014.02
2023-09-27T09:31:41.008Z,1013.99
2023-09-27T09:32:41.036Z,1013.97
2023-09-27T09:33:40.984Z,1013.96
2023-09-27T09:34:40.925Z,1013.90
2023-09-27T09:35:40.953Z,1013.90
2023-09-27T09:36:40.916Z,1013.89
2023-09-27T09:37:40.892Z,1013.85
2023-09-27T09:38:40.927Z,1013.84
2023-09-27T09:39:40.889Z,1013.82
2023-09-27T09:40:40.857Z,1013.85
2023-09-27T09:41:40.875Z,1013.86
2023-09-27T09:42:40.832Z,1013.86
2023-09-27T09:43:40.822Z,1013.87
2023-09-27T09:44:40.882Z,1013.89
2023-09-27T09:45:40.831Z,1013.85
2023-09-27T09:46:40.841Z,1013.89
2023-09-27T09:47:40.920Z,1013.88
2023-09-27T09:48:40.761Z,1013.82
2023-09-27T09:49:40.753Z,1013.87
2023-09-27T09:50:40.785Z,1013.83
2023-09-27T09:51:40.744Z,1013.80
2023-09-27T09:52:40.714Z,1013.80
2023-09-27T09:53:41.010Z,1013.76
2023-09-27T09:54:40.696Z,1013.75
2023-09-27T09:56:51.531Z,1013.70
2023-09-27T09:57:52.483Z,1013.68
2023-09-27T09:58:41.653Z,1013.68
2023-09-27T09:59:40.689Z,1013.68
2023-09-27T10:00:40.628Z,1013.65
2023-09-27T10:01:40.688Z,1013.63
2023-09-27T10:02:41.932Z,1013.64
2023-09-27T10:03:40.690Z,1013.63
2023-09-27T10:04:40.617Z,1013.69
2023-09-27T10:05:40.670Z,1013.58
2023-09-27T10:06:49.276Z,1013.61
2023-09-27T10:07:41.575Z,1013.60
2023-09-27T10:08:40.581Z,1013.56
2023-09-27T10:09:40.530Z,1013.55
2023-09-27T10:10:40.517Z,1013.55
2023-09-27T10:11:40.565Z,1013.49
2023-09-27T10:12:40.520Z,1013.48
2023-09-27T10:13:40.508Z,1013.53
2023-09-27T10:14:40.591Z,1013.51
2023-09-27T10:15:40.463Z,1013.54
2023-09-27T10:16:40.494Z,1013.55
2023-09-27T10:17:40.546Z,1013.55
2023-09-27T10:18:40.499Z,1013.58
2023-09-27T10:19:40.417Z,1013.63
2023-09-27T10:20:40.454Z,1013.61
2023-09-27T10:21:40.400Z,1013.56
2023-09-27T10:22:42.864Z,1013.60
2023-09-27T10:23:40.405Z,1013.59
2023-09-27T10:24:40.360Z,1013.61
2023-09-27T10:25:40.350Z,1013.60
2023-09-27T10:26:40.374Z,1013.58
2023-09-27T10:27:40.352Z,1013.57
2023-09-27T10:28:40.315Z,1013.50
2023-09-27T10:29:40.371Z,1013.46
2023-09-27T10:30:40.297Z,1013.48
2023-09-27T10:31:40.341Z,1013.45
2023-09-27T10:32:40.412Z,1013.42
2023-09-27T10:33:40.422Z,1013.44
2023-09-27T10:34:40.292Z,1013.40
2023-09-27T10:35:40.335Z,1013.41
2023-09-27T10:36:40.684Z,1013.40
2023-09-27T10:37:40.256Z,1013.41
2023-09-27T10:38:40.253Z,1013.41
2023-09-27T10:39:40.208Z,1013.37
2023-09-27T10:40:40.191Z,1013.37
2023-09-27T10:41:40.394Z,1013.36
2023-09-27T10:42:40.177Z,1013.33
2023-09-27T10:43:40.164Z,1013.33
2023-09-27T10:44:40.202Z,1013.36
2023-09-27T10:45:40.151Z,1013.35
2023-09-27T10:46:40.127Z,1013.37
2023-09-27T10:47:40.229Z,1013.35
2023-09-27T10:48:40.123Z,1013.37
2023-09-27T10:49:40.122Z,1013.40
2023-09-27T10:50:40.174Z,1013.39
2023-09-27T10:51:42.819Z,1013.35
2023-09-27T10:52:40.087Z,1013.28
2023-09-27T10:53:40.162Z,1013.34
2023-09-27T10:54:40.042Z,1013.33
2023-09-27T10:55:40.039Z,1013.29
2023-09-27T10:56:40.030Z,1013.31
2023-09-27T10:57:40.017Z,1013.35
2023-09-27T10:58:39.993Z,1013.33
2023-09-27T10:59:40.008Z,1013.34
2023-09-27T11:00:39.970Z,1013.33
2023-09-27T11:01:40.682Z,1013.33
2023-09-27T11:02:40.043Z,1013.33
2023-09-27T11:03:39.985Z,1013.32
2023-09-27T11:04:39.965Z,1013.30
2023-09-27T11:05:39.999Z,1013.30
2023-09-27T11:06:39.994Z,1013.30
2023-09-27T11:07:39.912Z,1013.33
2023-09-27T11:08:39.914Z,1013.29
2023-09-27T11:09:39.871Z,1013.31
2023-09-27T11:10:39.871Z,1013.29
2023-09-27T11:11:39.893Z,1013.27
2023-09-27T11:12:39.856Z,1013.26
2023-09-27T11:13:39.827Z,1013.23
2023-09-27T11:14:39.860Z,1013.21
2023-09-27T11:15:39.807Z,1013.22
2023-09-27T11:16:39.795Z,1013.22
2023-09-27T11:17:39.936Z,1013.21
2023-09-27T11:18:39.823Z,1013.21
2023-09-27T11:19:39.764Z,1013.24
2023-09-27T11:20:39.772Z,1013.20
2023-09-27T11:21:39.746Z,1013.20
2023-09-27T11:22:39.764Z,1013.22
2023-09-27T11:23:40.772Z,1013.23
2023-09-27T11:24:39.715Z,1013.18
2023-09-27T11:25:39.696Z,1013.23
2023-09-27T11:26:39.741Z,1013.22
2023-09-27T11:27:39.690Z,1013.26
2023-09-27T11:28:39.662Z,1013.17
2023-09-27T11:29:39.668Z,1013.15
2023-09-27T11:30:39.640Z,1013.14
2023-09-27T11:31:39.711Z,1013.11
2023-09-27T11:32:39.707Z,1013.10
2023-09-27T11:33:39.612Z,1013.06
2023-09-27T11:34:39.600Z,1013.03
2023-09-27T11:35:39.653Z,1013.02
2023-09-27T11:36:39.576Z,1013.00
2023-09-27T11:37:39.584Z,1013.03
2023-09-27T11:38:39.594Z,1013.00
2023-09-27T11:39:39.542Z,1012.99
2023-09-27T11:40:39.689Z,1013.02
2023-09-27T11:41:39.550Z,1013.00
2023-09-27T11:42:39.650Z,1012.98
2023-09-27T11:43:40.252Z,1012.98
2023-09-27T11:44:39.560Z,1012.94
2023-09-27T11:45:39.514Z,1012.94
2023-09-27T11:46:39.469Z,1012.91
2023-09-27T11:47:39.557Z,1012.94
2023-09-27T11:48:39.446Z,1012.93
2023-09-27T11:49:39.442Z,1012.90
2023-09-27T11:50:39.445Z,1012.86
2023-09-27T11:51:39.444Z,1012.79
2023-09-27T11:52:39.404Z,1012.77
2023-09-27T11:53:39.472Z,1012.73
2023-09-27T11:54:39.414Z,1012.68
2023-09-27T11:55:39.402Z,1012.70
2023-09-27T11:56:39.414Z,1012.69
2023-09-27T11:57:39.350Z,1012.65
2023-09-27T11:58:40.784Z,1012.62
2023-09-27T11:59:39.353Z,1012.59
2023-09-27T12:00:39.345Z,1012.59
2023-09-27T12:01:39.377Z,1012.61
2023-09-27T12:02:52.253Z,1012.57
2023-09-27T12:03:40.427Z,1012.53
2023-09-27T12:04:39.512Z,1012.53
2023-09-27T12:05:39.572Z,1012.50
2023-09-27T12:06:39.490Z,1012.48
2023-09-27T12:07:39.645Z,1012.44
2023-09-27T12:08:39.324Z,1012.42
2023-09-27T12:09:39.230Z,1012.44
2023-09-27T12:10:39.255Z,1012.43
2023-09-27T12:11:39.236Z,1012.41
2023-09-27T12:12:39.167Z,1012.38
2023-09-27T12:13:39.179Z,1012.42
2023-09-27T12:14:39.183Z,1012.37
2023-09-27T12:15:39.143Z,1012.40
2023-09-27T12:16:39.214Z,1012.37
2023-09-27T12:17:39.348Z,1012.35
2023-09-27T12:18:39.208Z,1012.37
2023-09-27T12:19:39.091Z,1012.35
2023-09-27T12:20:42.568Z,1012.30
2023-09-27T12:21:40.082Z,1012.26
2023-09-27T12:22:39.059Z,1012.23
2023-09-27T12:23:39.121Z,1012.26
2023-09-27T12:24:39.039Z,1012.21
2023-09-27T12:25:39.026Z,1012.18
2023-09-27T12:26:39.058Z,1012.21
2023-09-27T12:27:39.005Z,1012.17
2023-09-27T12:28:39.002Z,1012.17
2023-09-27T12:29:39.020Z,1012.17
2023-09-27T12:30:38.985Z,1012.15
2023-09-27T12:31:39.012Z,1012.15
2023-09-27T12:32:39.005Z,1012.09
2023-09-27T12:33:38.984Z,1012.05
2023-09-27T12:34:38.926Z,1012.02
2023-09-27T12:35:38.942Z,1012.05
2023-09-27T12:36:38.905Z,1011.99
2023-09-27T12:37:38.992Z,1011.97
2023-09-27T12:38:38.913Z,1011.95
2023-09-27T12:39:38.871Z,1011.97
2023-09-27T12:40:38.866Z,1011.93
2023-09-27T12:41:38.885Z,1011.93
2023-09-27T12:42:38.858Z,1011.89
2023-09-27T12:43:38.857Z,1011.88
2023-09-27T12:44:38.842Z,1011.92
2023-09-27T12:45:38.850Z,1011.91
2023-09-27T12:46:38.793Z,1011.91
2023-09-27T12:47:38.916Z,1011.92
2023-09-27T12:48:38.870Z,1011.87
2023-09-27T12:49:38.763Z,1011.94
2023-09-27T12:50:38.781Z,1011.86
2023-09-27T12:51:48.281Z,1011.89
2023-09-27T12:52:39.734Z,1011.89
2023-09-27T12:53:38.754Z,1011.89
2023-09-27T12:54:38.710Z,1011.86
2023-09-27T12:55:38.696Z,1011.84
2023-09-27T12:56:38.741Z,1011.89
2023-09-27T12:57:38.676Z,1011.85
2023-09-27T12:58:38.690Z,1011.86
2023-09-27T12:59:38.700Z,1011.83
2023-09-27T13:00:38.696Z,1011.83
2023-09-27T13:01:40.714Z,1011.84
2023-09-27T13:02:38.768Z,1011.88
2023-09-27T13:03:38.769Z,1011.92
2023-09-27T13:04:38.642Z,1011.89
2023-09-27T13:05:38.680Z,1011.83
2023-09-27T13:06:38.581Z,1011.82
2023-09-27T13:07:38.565Z,1011.81
2023-09-27T13:08:38.597Z,1011.78
2023-09-27T13:09:38.545Z,1011.81
2023-09-27T13:10:38.541Z,1011.81
2023-09-27T13:11:38.613Z,1011.73
2023-09-27T13:12:38.966Z,1011.70
2023-09-27T13:13:38.517Z,1011.71
2023-09-27T13:14:38.547Z,1011.64
2023-09-27T13:15:38.537Z,1011.65
2023-09-27T13:16:38.472Z,1011.62
2023-09-27T13:17:38.528Z,1011.56
2023-09-27T13:18:38.478Z,1011.56
2023-09-27T13:19:38.456Z,1011.55
2023-09-27T13:20:38.451Z,1011.56
2023-09-27T13:21:38.415Z,1011.53
2023-09-27T13:22:38.419Z,1011.51
2023-09-27T13:23:38.494Z,1011.58
2023-09-27T13:24:38.383Z,1011.55
2023-09-27T13:25:38.385Z,1011.59
2023-09-27T13:26:38.471Z,1011.53
2023-09-27T13:27:38.350Z,1011.53
2023-09-27T13:28:38.356Z,1011.49
2023-09-27T13:29:38.367Z,1011.51
2023-09-27T13:30:38.365Z,1011.48
2023-09-27T13:31:38.323Z,1011.48
2023-09-27T13:32:38.335Z,1011.44
2023-09-27T13:33:38.393Z,1011.37
2023-09-27T13:34:38.275Z,1011.33
2023-09-27T13:35:38.303Z,1011.37
2023-09-27T13:36:38.250Z,1011.34
2023-09-27T13:37:38.246Z,1011.30
2023-09-27T13:38:38.255Z,1011.30
2023-09-27T13:39:38.219Z,1011.28
2023-09-27T13:40:38.219Z,1011.27
2023-09-27T13:41:38.235Z,1011.21
2023-09-27T13:42:38.182Z,1011.21
2023-09-27T13:43:38.226Z,1011.18
2023-09-27T13:44:38.229Z,1011.19
2023-09-27T13:45:38.357Z,1011.17
2023-09-27T13:46:38.240Z,1011.15
2023-09-27T13:47:38.167Z,1011.18
2023-09-27T13:48:38.149Z,1011.13
2023-09-27T13:49:38.111Z,1011.14
2023-09-27T13:50:38.109Z,1011.19
2023-09-27T13:51:38.438Z,1011.13
2023-09-27T13:52:38.125Z,1011.09
2023-09-27T13:53:38.128Z,1011.11
2023-09-27T13:54:38.049Z,1011.07
2023-09-27T13:55:38.086Z,1011.02
2023-09-27T13:56:38.190Z,1011.01
2023-09-27T13:57:38.024Z,1011.04
2023-09-27T13:58:38.043Z,1011.08
2023-09-27T13:59:38.028Z,1011.00
2023-09-27T14:00:37.989Z,1011.06
2023-09-27T14:01:38.005Z,1011.06
2023-09-27T14:02:38.021Z,1011.08
2023-09-27T14:03:38.000Z,1011.07
2023-09-27T14:04:37.953Z,1011.03
2023-09-27T14:05:37.991Z,1011.06
2023-09-27T14:06:37.931Z,1011.05
2023-09-27T14:07:37.911Z,1011.05
2023-09-27T14:08:37.975Z,1011.04
2023-09-27T14:09:37.943Z,1011.02
2023-09-27T14:10:37.875Z,1011.02
2023-09-27T14:11:37.906Z,1011.00
2023-09-27T14:12:37.877Z,1011.03
2023-09-27T14:13:37.839Z,1011.04
2023-09-27T14:14:37.900Z,1011.04
2023-09-27T14:15:37.849Z,1011.07
2023-09-27T14:16:38.053Z,1011.06
2023-09-27T14:17:37.869Z,1011.04
2023-09-27T14:18:37.892Z,1010.99
2023-09-27T14:19:37.795Z,1010.99
2023-09-27T14:20:37.813Z,1011.01
2023-09-27T14:21:37.763Z,1010.92
2023-09-27T14:22:37.747Z,1010.96
2023-09-27T14:23:37.801Z,1010.95
2023-09-27T14:24:37.736Z,1010.91
2023-09-27T14:25:38.815Z,1010.92
2023-09-27T14:26:37.761Z,1010.91
2023-09-27T14:27:37.689Z,1010.94
2023-09-27T14:28:37.692Z,1010.89
2023-09-27T14:29:37.744Z,1010.90
2023-09-27T14:30:37.663Z,1010.87
2023-09-27T14:31:37.703Z,1010.87
2023-09-27T14:32:37.810Z,1010.86
2023-09-27T14:33:37.675Z,1010.82
2023-09-27T14:35:52.514Z,1010.74
2023-09-27T14:36:38.589Z,1010.75
2023-09-27T14:37:37.692Z,1010.82
2023-09-27T14:38:37.568Z,1010.82
2023-09-27T14:39:37.567Z,1010.80
2023-09-27T14:40:37.575Z,1010.79
2023-09-27T14:41:37.533Z,1010.78
2023-09-27T14:42:37.523Z,1010.78
2023-09-27T14:43:37.537Z,1010.80
2023-09-27T14:44:37.518Z,1010.75
2023-09-27T14:45:37.532Z,1010.76
2023-09-27T14:46:37.552Z,1010.78
2023-09-27T14:47:37.509Z,1010.77
2023-09-27T14:48:37.454Z,1010.78
2023-09-27T14:49:37.492Z,1010.74
2023-09-27T14:50:37.463Z,1010.77
2023-09-27T14:51:37.427Z,1010.79
2023-09-27T14:52:37.441Z,1010.80
2023-09-27T14:53:37.400Z,1010.80
2023-09-27T14:54:37.416Z,1010.83
2023-09-27T14:55:37.405Z,1010.83
2023-09-27T14:56:37.367Z,1010.88
2023-09-27T14:57:37.354Z,1010.83
2023-09-27T14:58:37.370Z,1010.84
2023-09-27T14:59:37.348Z,1010.81
2023-09-27T15:00:37.331Z,1010.86
2023-09-27T15:01:37.362Z,1010.87
2023-09-27T15:02:37.323Z,1010.85
2023-09-27T15:03:37.389Z,1010.83
2023-09-27T15:04:37.477Z,1010.85
2023-09-27T15:05:37.327Z,1010.82
2023-09-27T15:06:37.283Z,1010.81
2023-09-27T15:07:37.304Z,1010.76
2023-09-27T15:08:37.237Z,1010.74
2023-09-27T15:09:37.246Z,1010.71
2023-09-27T15:10:37.261Z,1010.73
2023-09-27T15:11:37.201Z,1010.78
2023-09-27T15:12:37.193Z,1010.76
2023-09-27T15:13:37.201Z,1010.80
2023-09-27T15:14:37.179Z,1010.80
2023-09-27T15:15:37.297Z,1010.79
2023-09-27T15:16:37.152Z,1010.82
2023-09-27T15:17:37.177Z,1010.80
2023-09-27T15:18:37.128Z,1010.77
2023-09-27T15:19:37.169Z,1010.77
2023-09-27T15:20:37.100Z,1010.77
2023-09-27T15:21:37.090Z,1010.77
2023-09-27T15:22:37.120Z,1010.74
2023-09-27T15:23:37.064Z,1010.77
2023-09-27T15:24:38.517Z,1010.77
2023-09-27T15:25:37.063Z,1010.77
2023-09-27T15:26:37.042Z,1010.78
2023-09-27T15:27:37.073Z,1010.78
2023-09-27T15:28:37.027Z,1010.79
2023-09-27T15:29:37.012Z,1010.76
2023-09-27T15:30:36.986Z,1010.76
2023-09-27T15:31:37.044Z,1010.74
2023-09-27T15:32:36.983Z,1010.74
2023-09-27T15:33:36.962Z,1010.74
2023-09-27T15:34:37.008Z,1010.74
2023-09-27T15:35:36.928Z,1010.75
2023-09-27T15:36:36.921Z,1010.74
2023-09-27T15:37:36.925Z,1010.75
2023-09-27T15:38:36.919Z,1010.73
2023-09-27T15:39:36.909Z,1010.70
2023-09-27T15:40:36.919Z,1010.68
2023-09-27T15:41:36.864Z,1010.68
2023-09-27T15:42:36.854Z,1010.70
2023-09-27T15:43:36.913Z,1010.70
2023-09-27T15:44:36.872Z,1010.67
2023-09-27T15:45:36.827Z,1010.61
2023-09-27T15:46:36.817Z,1010.64
2023-09-27T15:47:36.840Z,1010.58
2023-09-27T15:48:36.786Z,1010.58
2023-09-27T15:49:36.797Z,1010.57
2023-09-27T15:50:36.764Z,1010.54
2023-09-27T15:51:36.751Z,1010.52
2023-09-27T15:52:36.748Z,1010.50
2023-09-27T15:53:36.734Z,1010.48
2023-09-27T15:54:36.780Z,1010.51
2023-09-27T15:55:36.730Z,1010.53
2023-09-27T15:56:36.703Z,1010.52
2023-09-27T15:57:36.687Z,1010.51
2023-09-27T15:58:36.692Z,1010.50
2023-09-27T15:59:36.682Z,1010.48
2023-09-27T16:00:36.653Z,1010.47
2023-09-27T16:01:36.768Z,1010.43
2023-09-27T16:02:36.655Z,1010.43
2023-09-27T16:03:36.725Z,1010.41
2023-09-27T16:04:45.991Z,1010.38
2023-09-27T16:05:37.626Z,1010.37
2023-09-27T16:06:36.596Z,1010.37
2023-09-27T16:07:36.607Z,1010.35
2023-09-27T16:08:36.568Z,1010.33
2023-09-27T16:09:36.598Z,1010.34
2023-09-27T16:10:42.581Z,1010.33
2023-09-27T16:11:38.367Z,1010.31
2023-09-27T16:12:36.517Z,1010.32
2023-09-27T16:13:36.522Z,1010.27
2023-09-27T16:14:36.523Z,1010.29
2023-09-27T16:15:36.509Z,1010.24
2023-09-27T16:16:36.503Z,1010.25
2023-09-27T16:17:38.415Z,1010.24
2023-09-27T16:18:36.454Z,1010.26
2023-09-27T16:19:36.477Z,1010.24
2023-09-27T16:20:36.436Z,1010.25
2023-09-27T16:21:36.431Z,1010.22
2023-09-27T16:22:36.476Z,1010.29
2023-09-27T16:23:36.400Z,1010.30
2023-09-27T16:24:36.423Z,1010.30
2023-09-27T16:25:36.448Z,1010.31
2023-09-27T16:26:36.399Z,1010.34
2023-09-27T16:27:36.389Z,1010.29
2023-09-27T16:28:36.474Z,1010.24
2023-09-27T16:29:36.362Z,1010.24
2023-09-27T16:30:36.335Z,1010.22
2023-09-27T16:31:36.413Z,1010.21
2023-09-27T16:32:36.545Z,1010.24
2023-09-27T16:33:36.343Z,1010.27
2023-09-27T16:34:36.367Z,1010.27
2023-09-27T16:35:36.273Z,1010.28
2023-09-27T16:36:36.261Z,1010.27
2023-09-27T16:37:36.340Z,1010.30
2023-09-27T16:38:36.237Z,1010.28
2023-09-27T16:39:36.225Z,1010.25
2023-09-27T16:40:36.253Z,1010.23
2023-09-27T16:41:36.210Z,1010.24
2023-09-27T16:42:36.218Z,1010.23
2023-09-27T16:43:36.203Z,1010.26
2023-09-27T16:44:36.174Z,1010.24
2023-09-27T16:45:36.211Z,1010.29
2023-09-27T16:46:36.178Z,1010.30
2023-09-27T16:47:36.198Z,1010.32
2023-09-27T16:48:36.241Z,1010.31
2023-09-27T16:49:36.146Z,1010.29
2023-09-27T16:50:36.127Z,1010.26
2023-09-27T16:51:36.099Z,1010.22
2023-09-27T16:52:36.121Z,1010.20
2023-09-27T16:53:36.100Z,1010.21
2023-09-27T16:54:36.061Z,1010.17
2023-09-27T16:55:36.146Z,1010.16
2023-09-27T16:56:36.040Z,1010.17
2023-09-27T16:57:36.026Z,1010.13
2023-09-27T16:58:36.073Z,1010.14
2023-09-27T16:59:36.004Z,1010.11
2023-09-27T17:00:36.021Z,1010.08
2023-09-27T17:01:36.045Z,1010.09
2023-09-27T17:02:36.058Z,1010.04
2023-09-27T17:03:36.053Z,1010.07
2023-09-27T17:04:36.038Z,1010.02
2023-09-27T17:05:35.962Z,1009.99
2023-09-27T17:06:35.929Z,1010.00
2023-09-27T17:07:36.074Z,1010.01
2023-09-27T17:08:35.902Z,1010.01
2023-09-27T17:09:35.906Z,1010.02
2023-09-27T17:10:35.987Z,1010.02
2023-09-27T17:11:35.898Z,1010.02
2023-09-27T17:12:35.877Z,1010.02
2023-09-27T17:13:35.889Z,1010.02
2023-09-27T17:14:35.862Z,1010.04
2023-09-27T17:15:35.879Z,1010.08
2023-09-27T17:16:35.848Z,1010.08
2023-09-27T17:17:35.800Z,1010.12
2023-09-27T17:18:35.795Z,1010.15
2023-09-27T17:19:35.834Z,1010.20
2023-09-27T17:20:35.801Z,1010.19
2023-09-27T17:21:35.756Z,1010.19
2023-09-27T17:22:35.790Z,1010.19
2023-09-27T17:23:35.738Z,1010.16
2023-09-27T17:24:35.724Z,1010.14
2023-09-27T17:25:35.766Z,1010.08
2023-09-27T17:26:35.709Z,1010.08
2023-09-27T17:27:35.710Z,1010.02
2023-09-27T17:28:35.701Z,1010.03
2023-09-27T17:29:35.672Z,1010.06
2023-09-27T17:30:35.699Z,1010.01
2023-09-27T17:31:35.723Z,1009.98
2023-09-27T17:32:35.725Z,1009.96
2023-09-27T17:33:35.654Z,1009.94